Time;durP1;ratioP1;P1;durP2;ratioP2;P2;SDS_P1;SDS_P2;PMS_P1;PMS_P2;Temp;Humidity;BMP_temperature;BMP_pressure;BME280_temperature;BME280_humidity;BME280_pressure;Samples;Min_cycle;Max_cycle;Signal;HPM_P1;HPM_P2
2023/02/19 00:00:21;;;;;;;8.77;4.27;;;9.00;99.90;;;;;;5111922;28;20209;-84
2023/02/19 00:03:28;;;;;;;11.67;5.07;;;8.90;99.90;;;;;;5103391;28;20247;-84
2023/02/19 00:06:13;;;;;;;9.13;4.10;;;9.00;99.90;;;;;;5091929;28;20274;-84
2023/02/19 00:08:53;;;;;;;8.40;4.73;;;8.90;99.90;;;;;;5102040;28;20236;-84
2023/02/19 00:11:29;;;;;;;8.90;4.80;;;8.90;99.90;;;;;;5085627;28;20210;-84
2023/02/19 00:14:16;;;;;;;7.37;4.37;;;8.90;99.90;;;;;;5085942;28;20293;-84
2023/02/19 00:16:43;;;;;;;6.33;4.37;;;8.90;99.90;;;;;;5104097;28;20257;-85
2023/02/19 00:19:18;;;;;;;8.57;3.90;;;8.90;99.90;;;;;;5102512;28;20215;-85
2023/02/19 00:21:47;;;;;;;9.63;4.53;;;9.00;99.90;;;;;;5085465;28;20225;-84
2023/02/19 00:29:52;;;;;;;8.90;5.33;;;8.90;99.90;;;;;;5040627;28;20225;-84
2023/02/19 00:32:20;;;;;;;13.20;5.40;;;8.90;99.90;;;;;;5086247;28;20260;-84
2023/02/19 00:34:49;;;;;;;10.10;5.90;;;9.00;99.90;;;;;;5086727;28;20267;-84
2023/02/19 00:37:18;;;;;;;12.53;5.93;;;9.00;99.90;;;;;;5086035;28;20225;-84
2023/02/19 00:39:45;;;;;;;12.23;6.13;;;9.00;99.90;;;;;;5086205;28;20206;-84
2023/02/19 00:42:12;;;;;;;10.97;6.03;;;9.00;99.90;;;;;;5094951;28;20229;-84
2023/02/19 00:44:39;;;;;;;11.27;6.30;;;9.00;99.90;;;;;;5106596;28;20197;-84
2023/02/19 00:47:07;;;;;;;11.30;6.10;;;8.90;99.90;;;;;;5107360;28;20225;-84
2023/02/19 00:49:33;;;;;;;14.77;6.40;;;9.00;99.90;;;;;;5107015;28;20210;-84
2023/02/19 00:52:00;;;;;;;13.60;6.30;;;8.90;99.90;;;;;;5107367;28;20210;-83
2023/02/19 00:54:30;;;;;;;10.17;5.80;;;8.90;99.90;;;;;;5107516;28;20198;-83
2023/02/19 00:56:57;;;;;;;11.87;6.53;;;8.90;99.90;;;;;;5108226;28;20285;-84
2023/02/19 00:59:24;;;;;;;11.03;5.97;;;8.80;99.90;;;;;;5107287;28;20213;-84
2023/02/19 01:01:51;;;;;;;14.00;6.03;;;8.90;99.90;;;;;;5106278;28;20208;-84
2023/02/19 01:04:18;;;;;;;13.07;6.40;;;8.80;99.90;;;;;;5106968;28;20221;-85
2023/02/19 01:06:47;;;;;;;13.33;6.83;;;8.90;99.90;;;;;;5107653;28;20247;-83
2023/02/19 01:09:15;;;;;;;12.23;6.73;;;8.80;99.90;;;;;;5106585;28;20669;-83
2023/02/19 01:11:43;;;;;;;15.33;7.67;;;8.90;99.90;;;;;;5106932;28;20217;-84
2023/02/19 01:14:10;;;;;;;15.13;8.50;;;8.90;99.90;;;;;;5106234;28;20218;-84
2023/02/19 01:16:38;;;;;;;15.53;8.30;;;8.90;99.90;;;;;;5106100;28;20852;-83
2023/02/19 01:19:05;;;;;;;15.37;7.87;;;8.90;99.90;;;;;;5105590;28;20213;-84
2023/02/19 01:21:32;;;;;;;14.97;7.83;;;8.90;99.90;;;;;;5106037;28;20228;-83
2023/02/19 01:23:59;;;;;;;18.03;8.47;;;8.90;99.90;;;;;;5105800;28;20261;-83
2023/02/19 01:26:32;;;;;;;17.40;8.80;;;8.90;99.90;;;;;;5105112;28;20263;-83
2023/02/19 01:29:01;;;;;;;16.37;8.87;;;9.00;99.90;;;;;;5105672;28;20183;-83
2023/02/19 01:31:29;;;;;;;15.33;8.37;;;9.00;99.90;;;;;;5105540;28;20213;-83
2023/02/19 01:33:58;;;;;;;15.37;7.67;;;9.00;99.90;;;;;;5105649;28;20223;-84
2023/02/19 01:36:26;;;;;;;18.97;8.97;;;8.90;99.90;;;;;;5105029;28;20213;-83
2023/02/19 01:38:53;;;;;;;13.50;8.03;;;9.00;99.90;;;;;;5105341;28;20228;-83
2023/02/19 01:41:22;;;;;;;18.73;8.37;;;9.00;99.90;;;;;;5106388;28;20218;-84
2023/02/19 01:43:58;;;;;;;15.27;8.57;;;9.00;99.90;;;;;;5104770;28;20224;-83
2023/02/19 01:46:28;;;;;;;14.27;8.30;;;9.00;99.90;;;;;;5113855;28;20197;-83
2023/02/19 01:48:57;;;;;;;16.87;8.27;;;9.00;99.90;;;;;;5091427;28;20197;-83
2023/02/19 01:51:24;;;;;;;19.17;8.77;;;9.00;99.90;;;;;;5114873;28;20201;-84
2023/02/19 01:53:57;;;;;;;17.27;8.93;;;9.00;99.90;;;;;;5105024;28;20233;-83
2023/02/19 01:56:26;;;;;;;17.03;9.20;;;9.00;99.90;;;;;;5105942;28;20232;-84
2023/02/19 01:58:53;;;;;;;20.10;10.30;;;9.00;99.90;;;;;;5105753;28;20197;-82
2023/02/19 02:01:20;;;;;;;13.93;8.20;;;8.90;99.90;;;;;;5105964;28;20289;-82
2023/02/19 02:03:50;;;;;;;16.83;9.57;;;8.90;99.90;;;;;;5105294;28;20265;-82
2023/02/19 02:06:21;;;;;;;17.00;8.37;;;8.80;99.90;;;;;;5098703;28;20262;-82
2023/02/19 02:11:36;;;;;;;11.63;5.50;;;8.80;99.90;;;;;;5105771;28;20228;-82
2023/02/19 02:14:04;;;;;;;9.03;4.60;;;8.60;99.90;;;;;;5100027;28;20288;-82
2023/02/19 02:16:38;;;;;;;5.40;2.60;;;8.60;99.90;;;;;;5105063;28;20224;-83
2023/02/19 02:19:28;;;;;;;4.07;1.73;;;8.40;99.90;;;;;;5090553;28;20268;-82
2023/02/19 02:22:06;;;;;;;2.60;1.77;;;8.40;99.90;;;;;;5097812;28;20194;-82
2023/02/19 02:25:00;;;;;;;3.93;1.80;;;8.30;99.90;;;;;;5109556;28;20199;-82
2023/02/19 02:27:40;;;;;;;3.13;1.80;;;8.30;99.90;;;;;;5109964;28;20280;-83
2023/02/19 02:30:21;;;;;;;2.93;1.70;;;8.30;99.90;;;;;;5110538;28;20205;-83
2023/02/19 02:32:57;;;;;;;2.53;1.70;;;8.30;99.90;;;;;;5109425;28;20232;-82
2023/02/19 02:35:29;;;;;;;3.93;1.73;;;8.30;99.90;;;;;;5109199;28;20186;-83
2023/02/19 02:38:00;;;;;;;3.13;1.87;;;8.30;99.90;;;;;;5109799;28;20224;-83
2023/02/19 02:40:27;;;;;;;3.03;2.10;;;8.20;99.90;;;;;;5109995;28;20938;-83
2023/02/19 02:42:57;;;;;;;2.73;2.10;;;8.20;99.90;;;;;;5109258;28;20282;-83
2023/02/19 02:45:35;;;;;;;4.03;2.30;;;8.20;99.90;;;;;;5110049;28;20305;-83
2023/02/19 02:48:22;;;;;;;5.07;2.60;;;8.30;99.90;;;;;;5109307;28;20233;-83
2023/02/19 02:50:53;;;;;;;4.50;2.93;;;8.20;99.90;;;;;;5108660;28;20197;-83
2023/02/19 02:56:10;;;;;;;7.73;4.37;;;8.30;99.90;;;;;;5109208;28;20223;-83
2023/02/19 02:58:38;;;;;;;7.33;4.10;;;8.40;99.90;;;;;;5109559;28;20221;-84
2023/02/19 03:04:01;;;;;;;11.87;5.57;;;8.60;99.90;;;;;;5108126;28;20239;-84
2023/02/19 03:06:31;;;;;;;9.37;4.83;;;8.60;99.90;;;;;;5100146;28;20246;-84
2023/02/19 03:09:01;;;;;;;9.70;5.00;;;8.70;99.90;;;;;;5102226;28;20213;-84
2023/02/19 03:19:57;;;;;;;9.97;5.43;;;8.80;99.90;;;;;;5108118;28;20215;-84
2023/02/19 03:22:27;;;;;;;7.83;4.87;;;8.90;99.90;;;;;;5105049;28;20205;-84
2023/02/19 03:27:45;;;;;;;7.57;4.20;;;8.90;99.90;;;;;;5108313;28;21120;-84
2023/02/19 03:30:16;;;;;;;7.07;3.80;;;8.90;99.90;;;;;;5107354;28;20269;-84
2023/02/19 03:32:48;;;;;;;4.93;3.50;;;9.00;99.90;;;;;;5091790;28;20277;-84
2023/02/19 03:35:19;;;;;;;7.33;3.83;;;9.00;99.90;;;;;;5108203;28;20213;-83
2023/02/19 03:37:51;;;;;;;6.10;3.90;;;9.20;99.90;;;;;;5101668;28;20205;-84
2023/02/19 03:40:18;;;;;;;6.67;3.87;;;9.20;99.90;;;;;;5096903;28;20201;-84
2023/02/19 03:42:59;;;;;;;6.07;3.40;;;9.20;99.90;;;;;;5103395;28;20225;-83
2023/02/19 03:45:33;;;;;;;8.10;4.00;;;9.20;99.90;;;;;;5099159;28;20200;-84
2023/02/19 03:48:22;;;;;;;7.07;3.63;;;9.30;99.90;;;;;;5091979;28;20207;-84
2023/02/19 03:50:55;;;;;;;6.97;4.33;;;9.20;99.90;;;;;;5095111;28;20210;-82
2023/02/19 03:53:28;;;;;;;7.60;4.07;;;9.20;99.90;;;;;;5100613;28;20277;-83
2023/02/19 03:56:06;;;;;;;7.53;4.30;;;9.20;99.90;;;;;;5093891;28;20186;-84
2023/02/19 03:58:40;;;;;;;9.53;4.97;;;9.20;99.90;;;;;;5107272;28;20205;-82
2023/02/19 04:01:13;;;;;;;3.33;2.20;;;9.20;99.90;;;;;;5091011;28;20232;-81
2023/02/19 04:03:47;;;;;;;1.30;0.80;;;8.20;99.90;;;;;;5094150;28;20261;-81
2023/02/19 04:06:17;;;;;;;3.27;0.90;;;7.70;99.90;;;;;;5106858;28;20288;-81
2023/02/19 04:08:48;;;;;;;1.23;0.80;;;7.50;99.90;;;;;;5106385;28;20265;-82
2023/02/19 04:11:16;;;;;;;0.60;0.57;;;7.30;99.90;;;;;;5104681;28;20268;-82
2023/02/19 04:13:47;;;;;;;1.93;0.70;;;7.20;99.90;;;;;;5105014;28;20229;-81
2023/02/19 04:16:20;;;;;;;0.70;0.70;;;7.20;99.90;;;;;;5105130;28;20205;-81
2023/02/19 04:18:51;;;;;;;0.83;0.80;;;7.10;99.90;;;;;;5103859;28;20197;-82
2023/02/19 04:21:20;;;;;;;0.90;0.80;;;7.30;99.90;;;;;;5106029;28;20189;-82
2023/02/19 04:23:47;;;;;;;1.23;1.00;;;7.00;99.90;;;;;;5104685;28;20208;-83
2023/02/19 04:26:15;;;;;;;1.20;0.97;;;7.00;99.90;;;;;;5093444;28;20229;-83
2023/02/19 04:28:43;;;;;;;2.67;1.00;;;7.10;99.90;;;;;;5111912;28;21437;-82
2023/02/19 04:31:10;;;;;;;1.57;1.10;;;7.10;99.90;;;;;;5102307;28;20194;-81
2023/02/19 04:33:37;;;;;;;1.10;0.80;;;7.00;99.90;;;;;;5102940;28;20226;-84
2023/02/19 04:36:09;;;;;;;0.97;0.87;;;6.90;99.90;;;;;;5094828;28;20261;-82
2023/02/19 04:38:36;;;;;;;1.90;0.70;;;6.90;99.90;;;;;;5106520;28;20206;-82
2023/02/19 04:41:06;;;;;;;1.33;1.07;;;6.80;99.90;;;;;;5105099;28;20212;-81
2023/02/19 04:43:33;;;;;;;0.80;0.73;;;6.80;99.90;;;;;;5095677;28;20198;-81
2023/02/19 04:46:01;;;;;;;1.37;0.67;;;6.80;99.90;;;;;;5104710;28;20200;-81
2023/02/19 04:48:28;;;;;;;0.80;0.70;;;6.80;99.90;;;;;;5110072;28;20233;-82
2023/02/19 04:50:55;;;;;;;0.80;0.77;;;6.80;99.90;;;;;;5108926;28;20269;-81
2023/02/19 04:53:23;;;;;;;1.20;1.10;;;6.70;99.90;;;;;;5109271;28;20237;-81
2023/02/19 04:55:52;;;;;;;1.63;1.20;;;6.70;99.90;;;;;;5100622;28;20207;-80
2023/02/19 04:58:19;;;;;;;1.73;1.00;;;6.70;99.90;;;;;;5108010;28;20218;-81
2023/02/19 05:00:46;;;;;;;1.40;1.20;;;6.60;99.90;;;;;;5108292;28;20205;-80
2023/02/19 05:03:13;;;;;;;0.80;0.80;;;6.60;99.90;;;;;;5105069;28;20213;-83
2023/02/19 05:05:40;;;;;;;0.97;0.80;;;6.50;99.90;;;;;;5102035;28;20209;-81
2023/02/19 05:08:07;;;;;;;0.67;0.67;;;6.50;99.90;;;;;;5113310;28;20232;-82
2023/02/19 05:10:35;;;;;;;0.67;0.67;;;6.40;99.90;;;;;;5111611;28;20201;-82
2023/02/19 05:13:02;;;;;;;1.90;1.23;;;6.40;99.90;;;;;;5112774;28;20270;-82
2023/02/19 05:15:29;;;;;;;2.93;1.10;;;6.50;99.90;;;;;;5109952;28;20229;-82
2023/02/19 05:17:56;;;;;;;1.33;0.93;;;6.50;99.90;;;;;;5098102;28;20229;-81
2023/02/19 05:20:23;;;;;;;1.03;0.93;;;6.40;99.90;;;;;;5093049;28;20202;-81
2023/02/19 05:22:49;;;;;;;1.90;1.30;;;6.40;99.90;;;;;;5101576;28;20206;-81
2023/02/19 05:25:16;;;;;;;1.13;1.03;;;6.40;99.90;;;;;;5107656;28;20194;-81
2023/02/19 05:27:45;;;;;;;1.90;0.63;;;6.50;99.90;;;;;;5099778;28;20257;-81
2023/02/19 05:30:12;;;;;;;0.50;0.50;;;6.20;99.90;;;;;;5101709;28;20206;-80
2023/02/19 05:32:40;;;;;;;0.63;0.63;;;6.10;99.90;;;;;;5103584;28;20237;-80
2023/02/19 05:35:07;;;;;;;0.60;0.50;;;6.10;99.90;;;;;;5095343;28;20222;-82
2023/02/19 05:37:34;;;;;;;0.87;0.53;;;6.00;99.90;;;;;;5103524;28;20287;-81
2023/02/19 05:40:01;;;;;;;0.30;0.30;;;6.00;99.90;;;;;;5107101;28;20293;-82
2023/02/19 05:42:27;;;;;;;1.20;0.40;;;5.90;99.90;;;;;;5109505;28;20222;-82
2023/02/19 05:44:56;;;;;;;0.67;0.53;;;5.90;99.90;;;;;;5103934;28;20197;-82
2023/02/19 05:47:23;;;;;;;0.70;0.57;;;5.90;99.90;;;;;;5097748;28;20317;-83
2023/02/19 05:49:50;;;;;;;0.40;0.40;;;5.90;99.90;;;;;;5107983;28;20203;-82
2023/02/19 05:52:16;;;;;;;1.77;0.73;;;5.90;99.90;;;;;;5104067;28;20201;-83
2023/02/19 05:54:43;;;;;;;0.30;0.30;;;5.80;99.90;;;;;;5116281;28;20225;-85
2023/02/19 05:57:10;;;;;;;1.63;0.87;;;5.90;99.90;;;;;;5109172;28;20227;-82
2023/02/19 05:59:37;;;;;;;1.10;1.00;;;5.90;99.90;;;;;;5108091;28;20213;-83
2023/02/19 06:02:05;;;;;;;1.57;1.10;;;5.80;99.90;;;;;;5103650;28;20228;-81
2023/02/19 06:04:32;;;;;;;2.00;1.30;;;5.80;99.90;;;;;;5108294;28;20197;-81
2023/02/19 06:06:59;;;;;;;1.40;1.30;;;5.70;99.90;;;;;;5113495;28;20297;-82
2023/02/19 06:09:25;;;;;;;1.40;1.27;;;5.60;99.90;;;;;;5091407;28;20262;-83
2023/02/19 06:11:52;;;;;;;1.40;1.30;;;5.40;99.90;;;;;;5103142;28;20264;-82
2023/02/19 06:14:19;;;;;;;1.33;1.20;;;5.60;99.90;;;;;;5109286;28;20710;-81
2023/02/19 06:16:46;;;;;;;1.87;1.27;;;5.30;99.90;;;;;;5108057;28;20221;-82
2023/02/19 06:19:14;;;;;;;4.27;1.37;;;5.30;99.90;;;;;;5110130;28;20205;-81
2023/02/19 06:21:41;;;;;;;2.40;1.63;;;5.30;99.90;;;;;;5101258;28;20236;-80
2023/02/19 06:24:09;;;;;;;3.10;1.50;;;5.20;99.90;;;;;;5099436;28;20200;-82
2023/02/19 06:26:36;;;;;;;3.80;1.50;;;5.10;99.90;;;;;;5094576;28;20224;-81
2023/02/19 06:29:03;;;;;;;2.43;1.73;;;5.00;99.90;;;;;;5109741;28;20234;-80
2023/02/19 06:31:30;;;;;;;4.10;1.90;;;5.00;99.90;;;;;;5102793;28;20326;-83
2023/02/19 06:33:57;;;;;;;3.37;2.17;;;5.00;99.90;;;;;;5099343;28;20221;-83
2023/02/19 06:36:25;;;;;;;3.93;2.30;;;5.00;99.90;;;;;;5104266;28;20204;-82
2023/02/19 06:38:52;;;;;;;4.57;2.47;;;5.10;99.90;;;;;;5098525;28;20202;-84
2023/02/19 06:41:19;;;;;;;2.53;1.97;;;5.00;99.90;;;;;;5114582;28;20243;-83
2023/02/19 06:43:46;;;;;;;4.80;2.10;;;4.90;99.90;;;;;;5096427;22;20233;-88
2023/02/19 06:46:13;;;;;;;1.80;1.63;;;4.90;99.90;;;;;;5066507;28;20209;-88
2023/02/19 06:48:41;;;;;;;4.20;1.57;;;4.90;99.90;;;;;;5071288;28;20225;-88
2023/02/19 06:51:11;;;;;;;1.00;1.00;;;4.80;99.90;;;;;;5071961;28;20596;-89
2023/02/19 06:53:39;;;;;;;4.77;1.63;;;4.50;99.90;;;;;;5072830;28;20220;-85
2023/02/19 06:56:07;;;;;;;1.67;1.27;;;4.40;99.90;;;;;;5072617;28;20201;-89
2023/02/19 06:58:35;;;;;;;4.37;1.77;;;4.40;99.90;;;;;;5073007;28;20206;-88
2023/02/19 07:01:02;;;;;;;2.10;1.20;;;4.30;99.90;;;;;;5049180;28;20228;-88
2023/02/19 07:03:29;;;;;;;2.07;1.30;;;4.20;99.90;;;;;;5031716;28;20598;-88
2023/02/19 07:05:59;;;;;;;1.97;1.30;;;4.20;99.90;;;;;;5031780;28;20199;-88
2023/02/19 07:08:26;;;;;;;2.03;1.10;;;4.30;99.90;;;;;;5035857;28;20199;-89
2023/02/19 07:10:58;;;;;;;1.80;1.10;;;4.20;99.90;;;;;;5035412;28;20237;-89
2023/02/19 07:13:26;;;;;;;1.80;1.50;;;4.20;99.90;;;;;;5035428;28;20214;-88
2023/02/19 07:15:59;;;;;;;3.23;1.50;;;4.30;99.90;;;;;;5035123;28;20215;-87
2023/02/19 07:18:25;;;;;;;1.23;1.13;;;4.20;99.90;;;;;;5043591;28;20195;-89
2023/02/19 07:20:52;;;;;;;1.60;1.40;;;4.20;99.90;;;;;;5049183;28;20228;-90
2023/02/19 07:23:19;;;;;;;1.33;1.23;;;4.20;99.90;;;;;;5034993;28;20215;-88
2023/02/19 07:25:46;;;;;;;2.93;1.40;;;4.10;99.90;;;;;;5039285;28;20674;-90
2023/02/19 07:28:15;;;;;;;2.67;1.50;;;4.20;99.90;;;;;;5047906;28;20656;-89
2023/02/19 07:30:42;;;;;;;1.67;1.50;;;4.20;99.90;;;;;;5035429;28;20227;-90
2023/02/19 07:33:10;;;;;;;2.17;1.40;;;4.20;99.90;;;;;;5042310;28;20294;-89
2023/02/19 07:35:37;;;;;;;2.40;2.03;;;4.30;99.90;;;;;;5054704;28;20310;-89
2023/02/19 07:38:04;;;;;;;3.27;2.37;;;4.20;99.90;;;;;;5054943;28;20286;-90
2023/02/19 07:40:31;;;;;;;4.30;2.90;;;4.30;99.90;;;;;;5052591;28;20705;-90
2023/02/19 07:43:00;;;;;;;3.37;2.73;;;4.20;99.90;;;;;;5051525;28;20219;-89
2023/02/19 07:45:28;;;;;;;3.60;2.77;;;4.30;99.90;;;;;;5043122;28;20199;-89
2023/02/19 07:47:57;;;;;;;3.90;2.70;;;4.20;99.90;;;;;;5050821;28;20207;-89
2023/02/19 07:50:24;;;;;;;4.30;2.17;;;4.30;99.90;;;;;;5049511;28;20234;-89
2023/02/19 07:52:51;;;;;;;3.50;1.80;;;4.20;99.90;;;;;;5048818;28;20211;-89
2023/02/19 07:55:18;;;;;;;2.77;2.33;;;4.20;99.90;;;;;;5057282;28;20218;-89
2023/02/19 07:57:45;;;;;;;3.07;2.23;;;4.20;99.90;;;;;;5051376;28;20575;-88
2023/02/19 08:00:12;;;;;;;4.37;2.40;;;4.20;99.90;;;;;;5045832;28;20226;-88
2023/02/19 08:05:25;;;;;;;2.93;2.27;;;4.20;99.90;;;;;;5048127;28;20202;-89
2023/02/19 08:07:52;;;;;;;2.93;2.13;;;4.30;99.90;;;;;;5046472;28;20203;-89
2023/02/19 08:13:21;;;;;;;2.30;1.77;;;4.40;99.90;;;;;;5042458;28;20688;-89
2023/02/19 08:15:49;;;;;;;1.83;1.53;;;4.50;99.90;;;;;;5046912;28;20259;-88
2023/02/19 08:18:19;;;;;;;3.40;1.40;;;4.70;99.90;;;;;;5043435;28;20649;-89
2023/02/19 08:20:46;;;;;;;2.73;1.70;;;4.50;99.90;;;;;;5048724;28;20280;-89
2023/02/19 08:23:13;;;;;;;2.20;2.00;;;4.50;99.90;;;;;;5048206;28;20567;-89
2023/02/19 08:25:41;;;;;;;2.10;1.50;;;4.70;99.90;;;;;;5051201;28;20208;-89
2023/02/19 08:28:10;;;;;;;4.30;1.97;;;4.70;99.90;;;;;;5048156;28;20718;-90
2023/02/19 08:30:38;;;;;;;1.53;1.43;;;4.70;99.90;;;;;;5049623;28;20613;-90
2023/02/19 08:33:06;;;;;;;2.93;1.70;;;4.80;99.90;;;;;;5045334;28;20258;-89
2023/02/19 08:35:36;;;;;;;5.60;2.23;;;4.80;99.90;;;;;;5046311;28;20316;-89
2023/02/19 08:38:03;;;;;;;5.33;2.30;;;4.90;99.90;;;;;;5044422;28;20203;-89
2023/02/19 08:40:30;;;;;;;6.50;2.37;;;5.10;99.90;;;;;;5057335;28;20313;-90
2023/02/19 08:43:03;;;;;;;4.03;2.27;;;5.20;99.90;;;;;;5046069;28;20305;-90
2023/02/19 08:45:30;;;;;;;8.70;4.53;;;5.20;99.90;;;;;;5050721;28;20203;-90
2023/02/19 08:47:57;;;;;;;8.83;5.17;;;5.10;99.90;;;;;;5045838;28;20226;-90
2023/02/19 08:50:24;;;;;;;5.63;3.43;;;5.30;99.90;;;;;;5053421;28;20235;-89
2023/02/19 08:52:52;;;;;;;5.40;3.67;;;5.30;99.90;;;;;;5046896;28;20623;-90
2023/02/19 08:55:19;;;;;;;6.83;3.77;;;5.50;99.90;;;;;;5041351;28;20220;-89
2023/02/19 08:57:47;;;;;;;3.70;2.60;;;5.30;99.90;;;;;;5050527;28;20660;-89
2023/02/19 09:00:14;;;;;;;4.97;2.47;;;5.20;99.90;;;;;;5043341;28;20250;-89
2023/02/19 09:02:41;;;;;;;4.27;2.47;;;5.40;99.90;;;;;;5043858;28;20322;-89
2023/02/19 09:05:09;;;;;;;5.97;2.80;;;5.40;99.90;;;;;;5053821;28;20203;-89
2023/02/19 09:07:36;;;;;;;5.47;2.57;;;5.90;99.90;;;;;;5062033;28;20638;-90
2023/02/19 09:10:05;;;;;;;4.90;2.30;;;6.10;99.90;;;;;;5054888;28;20297;-89
2023/02/19 09:12:32;;;;;;;3.80;2.30;;;6.20;99.90;;;;;;5054035;28;20242;-89
2023/02/19 09:14:59;;;;;;;4.53;2.07;;;6.20;99.90;;;;;;5053766;28;20219;-90
2023/02/19 09:17:26;;;;;;;4.77;2.40;;;6.50;99.90;;;;;;5053852;28;20214;-90
2023/02/19 09:19:53;;;;;;;3.83;2.27;;;6.50;99.90;;;;;;5046379;28;20210;-89
2023/02/19 09:22:20;;;;;;;2.97;2.30;;;6.60;99.90;;;;;;5046005;28;20207;-90
2023/02/19 09:24:48;;;;;;;3.80;2.30;;;6.50;99.90;;;;;;5044531;28;20714;-90
2023/02/19 09:27:17;;;;;;;3.13;2.40;;;6.70;99.90;;;;;;5049727;28;20265;-89
2023/02/19 09:29:44;;;;;;;2.87;2.57;;;6.60;99.90;;;;;;5053404;28;20206;-90
2023/02/19 09:32:11;;;;;;;3.70;2.23;;;6.90;99.90;;;;;;5059921;28;20203;-90
2023/02/19 09:34:38;;;;;;;4.63;1.80;;;6.90;99.90;;;;;;5053789;28;20246;-90
2023/02/19 09:37:06;;;;;;;2.83;2.13;;;7.20;99.90;;;;;;5052787;28;20202;-90
2023/02/19 09:39:34;;;;;;;3.13;1.80;;;7.10;99.90;;;;;;5059601;28;20206;-89
2023/02/19 09:42:04;;;;;;;2.30;1.40;;;7.00;99.90;;;;;;5054731;28;20425;-90
2023/02/19 09:44:34;;;;;;;3.70;1.93;;;7.30;99.90;;;;;;5052395;28;20290;-89
2023/02/19 09:47:03;;;;;;;3.73;1.80;;;7.10;99.90;;;;;;5053439;28;20262;-89
2023/02/19 09:49:35;;;;;;;3.90;2.00;;;7.00;99.90;;;;;;5055898;28;20245;-90
2023/02/19 09:52:08;;;;;;;2.93;2.10;;;7.30;99.90;;;;;;5051331;28;20201;-90
2023/02/19 09:54:38;;;;;;;2.47;2.10;;;7.10;99.90;;;;;;5054046;28;20210;-90
2023/02/19 09:57:05;;;;;;;2.57;1.83;;;6.70;99.90;;;;;;5057615;28;20623;-90
2023/02/19 09:59:41;;;;;;;4.23;2.40;;;6.70;99.90;;;;;;5050047;28;20587;-90
2023/02/19 10:02:16;;;;;;;3.47;2.20;;;7.00;99.90;;;;;;5054933;28;20213;-90
2023/02/19 10:04:45;;;;;;;4.03;2.17;;;7.60;99.90;;;;;;5049511;28;20864;-91
2023/02/19 10:07:14;;;;;;;3.93;2.33;;;8.30;99.90;;;;;;5052256;28;20222;-90
2023/02/19 10:09:41;;;;;;;1.80;1.70;;;8.10;99.90;;;;;;5051997;28;20293;-90
2023/02/19 10:12:16;;;;;;;2.07;1.70;;;7.80;99.90;;;;;;5057662;28;20546;-90
2023/02/19 10:14:49;;;;;;;5.23;2.80;;;8.20;99.90;;;;;;5051779;28;20293;-90
2023/02/19 10:17:23;;;;;;;4.20;2.20;;;7.90;99.90;;;;;;5051586;28;20290;-90
2023/02/19 10:19:50;;;;;;;2.87;1.90;;;7.30;99.90;;;;;;5042609;28;20215;-90
2023/02/19 10:22:18;;;;;;;4.00;2.10;;;7.60;99.90;;;;;;5045462;28;20218;-92
2023/02/19 10:24:46;;;;;;;2.80;2.10;;;7.70;99.90;;;;;;5044915;28;20634;-88
2023/02/19 10:27:14;;;;;;;4.30;2.13;;;7.50;99.90;;;;;;5039293;28;20211;-88
2023/02/19 10:29:44;;;;;;;4.37;2.30;;;7.30;99.90;;;;;;5037050;28;20211;-88
2023/02/19 10:32:19;;;;;;;2.63;1.77;;;7.50;99.90;;;;;;5035554;28;20208;-89
2023/02/19 10:34:46;;;;;;;6.80;2.60;;;7.90;99.90;;;;;;5037241;28;20206;-88
2023/02/19 10:37:16;;;;;;;4.73;3.20;;;7.80;99.90;;;;;;5036683;28;20206;-89
2023/02/19 10:39:45;;;;;;;9.80;3.43;;;7.50;99.90;;;;;;5038751;28;20215;-89
2023/02/19 10:42:20;;;;;;;6.40;2.93;;;7.50;99.90;;;;;;5048714;28;20234;-89
2023/02/19 10:44:53;;;;;;;6.30;3.30;;;7.20;99.90;;;;;;5039787;28;20197;-89
2023/02/19 10:47:23;;;;;;;8.43;3.40;;;7.30;99.90;;;;;;5047727;28;20207;-89
2023/02/19 10:49:52;;;;;;;6.17;3.50;;;7.60;99.90;;;;;;5049992;28;20690;-88
2023/02/19 10:52:23;;;;;;;9.67;4.67;;;7.60;99.90;;;;;;5047912;28;20561;-89
2023/02/19 10:54:52;;;;;;;10.17;4.80;;;7.80;99.90;;;;;;5049091;28;20227;-89
2023/02/19 10:57:31;;;;;;;10.33;5.03;;;7.80;99.90;;;;;;5050506;28;20222;-89
2023/02/19 11:00:03;;;;;;;11.00;5.23;;;7.50;99.90;;;;;;5048414;28;20246;-88
2023/02/19 11:02:31;;;;;;;12.77;4.97;;;7.50;99.90;;;;;;5050692;28;20218;-88
2023/02/19 11:05:17;;;;;;;10.50;4.70;;;7.40;99.90;;;;;;5048038;28;20210;-88
2023/02/19 11:07:46;;;;;;;11.37;5.30;;;7.20;99.90;;;;;;5049865;28;20215;-88
2023/02/19 11:10:27;;;;;;;12.17;5.57;;;7.60;99.90;;;;;;5049789;28;20633;-89
2023/02/19 11:12:57;;;;;;;11.90;5.50;;;8.00;99.90;;;;;;5048292;28;20294;-88
2023/02/19 11:15:28;;;;;;;9.03;4.73;;;8.00;99.90;;;;;;5048439;28;20257;-89
2023/02/19 11:17:58;;;;;;;8.70;4.20;;;7.90;99.90;;;;;;5050276;28;20210;-88
2023/02/19 11:20:26;;;;;;;9.50;3.77;;;7.80;99.90;;;;;;5052649;28;20594;-88
2023/02/19 11:23:00;;;;;;;7.53;3.90;;;7.50;99.90;;;;;;5049082;28;20211;-89
2023/02/19 11:25:27;;;;;;;6.23;3.40;;;7.90;99.90;;;;;;5053113;28;20195;-88
2023/02/19 11:28:01;;;;;;;3.57;2.50;;;8.10;99.90;;;;;;5051008;28;20211;-88
2023/02/19 11:30:37;;;;;;;6.50;2.60;;;8.10;99.90;;;;;;5049091;28;20228;-88
2023/02/19 11:33:27;;;;;;;5.80;2.67;;;8.40;99.90;;;;;;5056207;28;20213;-87
2023/02/19 11:36:17;;;;;;;5.13;2.77;;;8.70;99.90;;;;;;5014527;28;20225;-89
2023/02/19 11:38:44;;;;;;;3.50;2.33;;;8.80;99.90;;;;;;5056409;28;20256;-90
2023/02/19 11:41:18;;;;;;;6.47;2.50;;;9.30;99.90;;;;;;5057916;28;20230;-89
2023/02/19 11:44:05;;;;;;;4.40;2.40;;;9.10;99.90;;;;;;5054083;28;20223;-90
2023/02/19 11:46:41;;;;;;;5.53;2.70;;;9.10;99.90;;;;;;5053646;28;20210;-90
2023/02/19 11:49:21;;;;;;;4.23;2.50;;;8.90;99.90;;;;;;5059449;28;20201;-89
2023/02/19 11:52:10;;;;;;;6.43;2.73;;;9.30;99.90;;;;;;5051942;28;20314;-89
2023/02/19 11:54:49;;;;;;;3.30;2.33;;;9.80;99.90;;;;;;5054978;28;20705;-89
2023/02/19 11:57:26;;;;;;;6.20;2.80;;;10.20;99.90;;;;;;5059173;28;20219;-89
2023/02/19 12:00:00;;;;;;;3.40;2.33;;;10.10;99.90;;;;;;5047452;28;20643;-89
2023/02/19 12:02:54;;;;;;;3.73;2.87;;;8.90;99.90;;;;;;5052830;28;20202;-89
2023/02/19 12:05:37;;;;;;;3.03;2.73;;;8.60;99.90;;;;;;5057245;28;20203;-89
2023/02/19 12:08:34;;;;;;;3.70;2.30;;;8.50;99.90;;;;;;5050107;28;20201;-89
2023/02/19 12:11:18;;;;;;;2.90;1.87;;;9.00;99.90;;;;;;5051157;28;20219;-89
2023/02/19 12:14:13;;;;;;;2.20;1.87;;;9.40;99.90;;;;;;5056715;28;20576;-90
2023/02/19 12:16:44;;;;;;;3.87;2.30;;;9.30;99.90;;;;;;5046978;28;20222;-89
2023/02/19 12:19:41;;;;;;;5.03;2.40;;;9.50;99.90;;;;;;5054452;28;20664;-89
2023/02/19 12:22:24;;;;;;;6.47;2.60;;;9.50;99.90;;;;;;5054990;28;20701;-87
2023/02/19 12:25:32;;;;;;;3.73;2.63;;;9.40;99.90;;;;;;5043064;28;20195;-92
2023/02/19 12:28:12;;;;;;;4.73;2.50;;;9.30;99.90;;;;;;5049423;28;20259;-92
2023/02/19 12:31:08;;;;;;;4.50;2.33;;;9.00;99.90;;;;;;5053188;28;20242;-91
2023/02/19 12:34:04;;;;;;;3.60;2.43;;;8.90;99.90;;;;;;5046716;28;20301;-91
2023/02/19 12:36:41;;;;;;;3.73;2.50;;;9.30;99.90;;;;;;5045546;28;20254;-91
2023/02/19 12:39:18;;;;;;;3.63;2.87;;;9.30;99.90;;;;;;5041997;28;20210;-92
2023/02/19 12:41:54;;;;;;;6.80;2.60;;;9.60;99.90;;;;;;5048297;28;20213;-90
2023/02/19 12:44:26;;;;;;;4.80;2.20;;;10.70;99.90;;;;;;5043183;28;20210;-91
2023/02/19 12:46:57;;;;;;;3.70;2.00;;;11.60;99.90;;;;;;5050737;28;20210;-91
2023/02/19 12:49:28;;;;;;;4.60;1.90;;;12.50;99.90;;;;;;5043358;28;20643;-91
2023/02/19 12:52:00;;;;;;;2.77;1.50;;;13.20;99.90;;;;;;5053506;28;20222;-91
2023/02/19 12:54:30;;;;;;;2.20;1.50;;;13.70;99.90;;;;;;5046994;28;20226;-91
2023/02/19 12:57:02;;;;;;;5.23;1.73;;;13.70;99.90;;;;;;5051952;28;20230;-92
2023/02/19 12:59:33;;;;;;;5.03;1.87;;;14.30;99.90;;;;;;5049169;28;20298;-91
2023/02/19 13:02:10;;;;;;;2.33;1.50;;;13.90;99.90;;;;;;5050895;28;20210;-92
2023/02/19 13:04:43;;;;;;;3.30;1.17;;;12.80;99.90;;;;;;5052865;28;20204;-92
2023/02/19 13:07:17;;;;;;;1.27;0.90;;;11.70;99.90;;;;;;5059853;28;20262;-92
2023/02/19 13:09:47;;;;;;;2.63;0.90;;;10.30;99.90;;;;;;5051812;28;20210;-92
2023/02/19 13:12:20;;;;;;;1.00;0.90;;;11.70;99.90;;;;;;5050327;28;20202;-92
2023/02/19 13:14:51;;;;;;;4.30;1.50;;;12.10;99.90;;;;;;5052428;28;20209;-92
2023/02/19 13:17:26;;;;;;;2.93;1.40;;;11.90;99.90;;;;;;5054061;28;20775;-90
2023/02/19 13:19:58;;;;;;;3.20;1.40;;;12.50;99.90;;;;;;5045313;28;20661;-89
2023/02/19 13:25:20;;;;;;;1.90;1.17;;;10.90;99.90;;;;;;5044513;28;20214;-90
2023/02/19 13:28:09;;;;;;;3.23;1.30;;;12.20;99.90;;;;;;5046558;28;20657;-90
2023/02/19 13:31:06;;;;;;;1.43;1.10;;;11.30;99.90;;;;;;5048362;28;20226;-90
2023/02/19 13:33:43;;;;;;;3.67;1.53;;;10.50;99.90;;;;;;5054642;28;20405;-90
2023/02/19 13:36:13;;;;;;;4.60;2.60;;;9.90;99.90;;;;;;5048473;28;20226;-90
2023/02/19 13:38:44;;;;;;;2.17;1.37;;;10.20;99.90;;;;;;5051493;28;20256;-89
2023/02/19 13:41:20;;;;;;;4.53;1.50;;;9.90;99.90;;;;;;5051157;28;20227;-89
2023/02/19 13:43:56;;;;;;;5.53;2.73;;;9.90;99.90;;;;;;5057162;28;20212;-90
2023/02/19 13:46:24;;;;;;;1.30;1.20;;;9.80;99.90;;;;;;5055100;28;20194;-89
2023/02/19 13:49:20;;;;;;;3.33;1.63;;;9.50;99.90;;;;;;5055511;28;20269;-89